Garwin, Iowa
Current Conditions -  °F | °C
As of 2:53 PM on Saturday 25 Oct 2014 (Local Time) from KMIW Reporting Station
Clear Clear  
Wind Chill: 68°   Ceiling: Unl
Heat Index: 68°   Visibility: 10mi
Dew Point: 36°   Wind: 10mph
Humidity: 31%   Direction: 330°NNW
Pressure: 30.06"   Gusts: NA
Location:  42.09°N, 92.68°W
Report Text: KMIW 251953Z AUTO 33009KT 10SM CLR 20/02 A3006 RMK AO2 SLP180 T02000022
Loading
Personal Weather Stations






























Interactive Weather Map New forecast layout! Learn more

10-Day Weather Forecast

Advertisements
Track Severe Weather on mobile